Time;durP1;ratioP1;P1;durP2;ratioP2;P2;SDS_P1;SDS_P2;PMS_P1;PMS_P2;Temp;Humidity;BMP_temperature;BMP_pressure;BME280_temperature;BME280_humidity;BME280_pressure;Samples;Min_cycle;Max_cycle;Signal;HPM_P1;HPM_P2
2022/11/14 00:01:09;;;;;;;47.58;27.10;;;;;;;;;;5004929;28;20077;-76
2022/11/14 00:03:35;;;;;;;43.67;26.23;;;;;;;;;;4994074;28;20053;-76
2022/11/14 00:06:05;;;;;;;45.25;27.75;;;;;;;;;;4979189;28;20041;-77
2022/11/14 00:08:31;;;;;;;44.22;27.52;;;;;;;;;;4995315;28;20044;-76
2022/11/14 00:10:57;;;;;;;46.80;27.77;;;;;;;;;;5012634;28;20051;-77
2022/11/14 00:13:23;;;;;;;58.03;30.40;;;;;;;;;;4996613;28;20554;-76
2022/11/14 00:15:53;;;;;;;45.22;29.17;;;;;;;;;;4986581;28;20080;-77
2022/11/14 00:18:19;;;;;;;47.85;30.45;;;;;;;;;;4991000;28;20049;-76
2022/11/14 00:20:49;;;;;;;49.20;30.80;;;;;;;;;;4984831;28;20076;-76
2022/11/14 00:23:19;;;;;;;47.88;31.58;;;;;;;;;;4989159;28;20049;-77
2022/11/14 00:25:45;;;;;;;48.53;32.53;;;;;;;;;;4973467;28;20049;-76
2022/11/14 00:28:12;;;;;;;49.40;30.52;;;;;;;;;;5000976;28;20044;-76
2022/11/14 00:30:38;;;;;;;44.55;29.90;;;;;;;;;;4990041;28;20405;-76
2022/11/14 00:33:04;;;;;;;52.65;32.15;;;;;;;;;;5000095;28;20037;-76
2022/11/14 00:35:30;;;;;;;52.58;36.15;;;;;;;;;;5000515;28;20033;-76
2022/11/14 00:37:57;;;;;;;56.70;35.05;;;;;;;;;;5005424;28;20026;-76
2022/11/14 00:40:23;;;;;;;49.65;35.63;;;;;;;;;;5047244;28;20040;-75
2022/11/14 00:42:49;;;;;;;53.08;35.40;;;;;;;;;;5047525;28;20056;-76
2022/11/14 00:45:15;;;;;;;59.28;37.83;;;;;;;;;;5009350;28;20041;-76
2022/11/14 00:47:41;;;;;;;53.50;36.28;;;;;;;;;;4992954;28;20096;-75
2022/11/14 00:50:07;;;;;;;58.17;36.83;;;;;;;;;;5006977;28;20036;-76
2022/11/14 00:52:34;;;;;;;56.55;38.38;;;;;;;;;;5009562;28;20123;-75
2022/11/14 00:55:00;;;;;;;55.60;39.15;;;;;;;;;;5006292;28;20048;-76
2022/11/14 00:57:26;;;;;;;55.10;35.88;;;;;;;;;;5009205;28;20052;-76
2022/11/14 00:59:54;;;;;;;58.47;38.65;;;;;;;;;;5009274;28;20052;-76
2022/11/14 01:02:20;;;;;;;59.72;40.17;;;;;;;;;;5011212;28;20049;-76
2022/11/14 01:04:46;;;;;;;58.28;39.25;;;;;;;;;;5017653;28;20101;-76
2022/11/14 01:07:12;;;;;;;59.15;38.53;;;;;;;;;;5018164;28;20033;-76
2022/11/14 01:09:38;;;;;;;59.05;38.60;;;;;;;;;;5013022;28;20049;-75
2022/11/14 01:12:04;;;;;;;58.10;39.50;;;;;;;;;;4996171;28;20068;-74
2022/11/14 01:14:30;;;;;;;60.15;39.20;;;;;;;;;;5018602;28;20040;-75
2022/11/14 01:16:57;;;;;;;56.03;38.22;;;;;;;;;;5021883;28;20045;-75
2022/11/14 01:19:23;;;;;;;62.97;38.78;;;;;;;;;;5018657;28;20283;-74
2022/11/14 01:21:49;;;;;;;60.47;39.05;;;;;;;;;;5009427;28;20064;-74
2022/11/14 01:24:15;;;;;;;59.67;38.97;;;;;;;;;;5031410;28;20143;-75
2022/11/14 01:26:41;;;;;;;56.63;36.70;;;;;;;;;;5047880;28;20045;-74
2022/11/14 01:29:07;;;;;;;61.03;38.25;;;;;;;;;;5032385;28;20035;-75
2022/11/14 01:31:33;;;;;;;58.83;38.22;;;;;;;;;;5038065;28;20040;-74
2022/11/14 01:33:59;;;;;;;56.88;36.78;;;;;;;;;;5028993;28;20473;-75
2022/11/14 01:36:25;;;;;;;60.25;38.25;;;;;;;;;;5010838;28;20055;-75
2022/11/14 01:38:52;;;;;;;64.05;40.15;;;;;;;;;;5009826;28;20057;-75
2022/11/14 01:41:19;;;;;;;60.17;39.33;;;;;;;;;;5015947;28;20110;-75
2022/11/14 01:43:45;;;;;;;61.70;38.75;;;;;;;;;;5000692;28;20056;-75
2022/11/14 01:46:31;;;;;;;59.47;36.72;;;;;;;;;;5009080;28;20036;-74
2022/11/14 01:48:59;;;;;;;62.50;38.63;;;;;;;;;;5006409;28;21536;-74
2022/11/14 01:51:28;;;;;;;64.65;39.60;;;;;;;;;;5030023;28;20168;-74
2022/11/14 01:53:56;;;;;;;57.22;38.03;;;;;;;;;;4985959;28;20811;-75
2022/11/14 01:56:26;;;;;;;58.45;40.45;;;;;;;;;;5012961;28;20075;-74
2022/11/14 01:58:55;;;;;;;61.03;38.72;;;;;;;;;;5014402;28;20036;-75
2022/11/14 02:01:21;;;;;;;62.65;38.28;;;;;;;;;;5029340;28;20064;-75
2022/11/14 02:03:49;;;;;;;59.15;39.15;;;;;;;;;;5008312;28;21985;-75
2022/11/14 02:06:18;;;;;;;57.95;36.38;;;;;;;;;;4996308;28;20041;-74
2022/11/14 02:08:44;;;;;;;61.15;40.30;;;;;;;;;;5011445;28;20222;-76
2022/11/14 02:11:11;;;;;;;60.72;37.47;;;;;;;;;;5011844;28;20064;-74
2022/11/14 02:13:37;;;;;;;58.85;36.55;;;;;;;;;;5018430;28;20540;-75
2022/11/14 02:16:04;;;;;;;63.72;38.35;;;;;;;;;;5013393;28;20079;-75
2022/11/14 02:18:30;;;;;;;64.35;40.42;;;;;;;;;;5033238;28;20048;-74
2022/11/14 02:20:56;;;;;;;57.58;38.60;;;;;;;;;;5034878;28;20075;-75
2022/11/14 02:23:26;;;;;;;62.55;41.15;;;;;;;;;;5013098;28;20045;-75
2022/11/14 02:25:53;;;;;;;66.07;39.55;;;;;;;;;;4994024;28;20049;-76
2022/11/14 02:28:20;;;;;;;67.28;41.20;;;;;;;;;;5007552;28;20136;-75
2022/11/14 02:30:47;;;;;;;64.53;40.65;;;;;;;;;;5026947;28;20051;-76
2022/11/14 02:33:13;;;;;;;60.85;38.28;;;;;;;;;;4987162;28;20488;-75
2022/11/14 02:35:39;;;;;;;66.35;40.95;;;;;;;;;;5011810;28;20079;-76
2022/11/14 02:38:06;;;;;;;61.00;40.22;;;;;;;;;;5015394;28;20078;-75
2022/11/14 02:40:32;;;;;;;70.43;42.92;;;;;;;;;;5007423;28;20041;-75
2022/11/14 02:42:59;;;;;;;69.90;42.60;;;;;;;;;;5001055;28;20779;-76
2022/11/14 02:45:25;;;;;;;69.68;42.45;;;;;;;;;;5036960;28;20658;-76
2022/11/14 02:47:51;;;;;;;65.07;40.15;;;;;;;;;;5037815;28;20127;-75
2022/11/14 02:50:17;;;;;;;70.07;44.25;;;;;;;;;;5018275;28;20370;-75
2022/11/14 02:52:43;;;;;;;69.00;43.47;;;;;;;;;;5017600;28;20037;-75
2022/11/14 02:55:10;;;;;;;70.15;44.67;;;;;;;;;;5000231;28;20080;-74
2022/11/14 02:57:36;;;;;;;79.80;45.30;;;;;;;;;;5017185;28;20045;-76
2022/11/14 03:00:02;;;;;;;67.70;43.13;;;;;;;;;;5018417;28;20048;-76
2022/11/14 03:02:28;;;;;;;71.25;43.38;;;;;;;;;;5041793;28;20037;-76
2022/11/14 03:04:54;;;;;;;72.57;45.40;;;;;;;;;;4987705;28;20041;-76
2022/11/14 03:07:20;;;;;;;76.50;46.05;;;;;;;;;;5028287;28;20044;-76
2022/11/14 03:09:46;;;;;;;70.53;46.65;;;;;;;;;;5024121;28;20040;-76
2022/11/14 03:12:15;;;;;;;75.60;48.03;;;;;;;;;;5010582;28;20043;-75
2022/11/14 03:14:41;;;;;;;70.63;46.55;;;;;;;;;;5032275;28;20051;-76
2022/11/14 03:17:07;;;;;;;76.47;46.40;;;;;;;;;;5031925;28;20107;-76
2022/11/14 03:19:33;;;;;;;69.18;45.03;;;;;;;;;;5015582;28;20091;-76
2022/11/14 03:21:59;;;;;;;69.43;47.42;;;;;;;;;;4993961;28;20045;-76
2022/11/14 03:24:25;;;;;;;75.60;46.63;;;;;;;;;;5030954;28;20037;-76
2022/11/14 03:26:52;;;;;;;73.22;45.25;;;;;;;;;;5000812;28;20307;-76
2022/11/14 03:29:18;;;;;;;66.35;47.22;;;;;;;;;;5017553;28;20489;-76
2022/11/14 03:31:44;;;;;;;67.95;44.03;;;;;;;;;;5016546;28;21629;-76
2022/11/14 03:34:10;;;;;;;67.72;46.60;;;;;;;;;;5016322;28;20557;-74
2022/11/14 03:36:36;;;;;;;72.30;46.58;;;;;;;;;;5011849;28;20488;-74
2022/11/14 03:39:03;;;;;;;73.05;49.83;;;;;;;;;;4997676;28;20203;-75
2022/11/14 03:41:29;;;;;;;70.47;46.63;;;;;;;;;;5015163;28;20063;-74
2022/11/14 03:43:55;;;;;;;71.70;49.33;;;;;;;;;;4999122;28;20041;-74
2022/11/14 03:46:21;;;;;;;70.43;44.75;;;;;;;;;;5041612;28;20036;-75
2022/11/14 03:48:47;;;;;;;70.20;47.17;;;;;;;;;;5030531;28;20036;-75
2022/11/14 03:51:14;;;;;;;71.32;46.35;;;;;;;;;;5024296;28;20187;-75
2022/11/14 03:53:40;;;;;;;60.30;42.08;;;;;;;;;;5042696;28;20059;-75
2022/11/14 03:56:06;;;;;;;62.33;42.85;;;;;;;;;;5026523;28;20052;-75
2022/11/14 03:58:32;;;;;;;59.63;41.22;;;;;;;;;;5048029;28;20040;-75
2022/11/14 04:00:58;;;;;;;64.22;41.88;;;;;;;;;;5038735;28;20041;-75
2022/11/14 04:03:25;;;;;;;63.78;44.20;;;;;;;;;;5019981;28;20051;-75
2022/11/14 04:05:51;;;;;;;60.85;41.45;;;;;;;;;;4989898;28;20081;-76
2022/11/14 04:08:17;;;;;;;62.55;41.35;;;;;;;;;;5027916;28;20199;-75
2022/11/14 04:10:46;;;;;;;60.47;41.63;;;;;;;;;;5012493;28;20389;-76
2022/11/14 04:13:12;;;;;;;59.22;40.33;;;;;;;;;;5007696;28;20044;-77
2022/11/14 04:15:38;;;;;;;59.38;43.88;;;;;;;;;;5007056;28;20044;-76
2022/11/14 04:18:05;;;;;;;60.30;42.05;;;;;;;;;;4995306;28;20041;-76
2022/11/14 04:20:31;;;;;;;60.63;42.38;;;;;;;;;;5005705;28;20041;-76
2022/11/14 04:22:57;;;;;;;60.75;41.28;;;;;;;;;;5007001;28;20605;-75
2022/11/14 04:25:23;;;;;;;62.58;42.17;;;;;;;;;;5004684;28;20436;-75
2022/11/14 04:27:49;;;;;;;63.88;42.70;;;;;;;;;;5012230;28;20049;-75
2022/11/14 04:30:15;;;;;;;62.10;42.63;;;;;;;;;;4986811;28;20045;-74
2022/11/14 04:32:41;;;;;;;68.13;42.17;;;;;;;;;;5008077;28;20048;-75
2022/11/14 04:35:07;;;;;;;70.97;43.42;;;;;;;;;;5003741;28;21349;-75
2022/11/14 04:37:33;;;;;;;65.32;41.85;;;;;;;;;;5008035;28;20047;-75
2022/11/14 04:40:01;;;;;;;60.35;40.40;;;;;;;;;;5009040;28;20065;-75
2022/11/14 04:42:27;;;;;;;62.67;41.20;;;;;;;;;;5011347;28;20405;-75
2022/11/14 04:44:53;;;;;;;63.22;41.03;;;;;;;;;;5003291;28;20044;-76
2022/11/14 04:47:19;;;;;;;66.97;40.22;;;;;;;;;;5023072;28;20065;-76
2022/11/14 04:49:46;;;;;;;66.65;42.88;;;;;;;;;;5019399;28;20278;-76
2022/11/14 04:52:12;;;;;;;70.40;43.72;;;;;;;;;;5038911;28;20049;-76
2022/11/14 04:54:38;;;;;;;70.18;42.15;;;;;;;;;;5016791;28;20702;-76
2022/11/14 04:57:04;;;;;;;66.05;41.95;;;;;;;;;;5007965;28;20049;-76
2022/11/14 04:59:30;;;;;;;67.60;44.28;;;;;;;;;;5002549;28;20052;-76
2022/11/14 05:01:56;;;;;;;61.80;41.05;;;;;;;;;;5005067;28;20049;-77
2022/11/14 05:04:22;;;;;;;61.92;41.25;;;;;;;;;;5001580;28;20079;-76
2022/11/14 05:06:48;;;;;;;71.60;43.50;;;;;;;;;;5003451;28;20041;-75
2022/11/14 05:09:14;;;;;;;67.38;43.38;;;;;;;;;;4979572;28;20085;-75
2022/11/14 05:11:40;;;;;;;61.88;42.97;;;;;;;;;;5012102;28;21721;-74
2022/11/14 05:14:06;;;;;;;61.78;39.33;;;;;;;;;;5012058;28;20052;-75
2022/11/14 05:16:32;;;;;;;66.68;41.50;;;;;;;;;;4995500;28;20045;-75
2022/11/14 05:18:59;;;;;;;67.22;43.90;;;;;;;;;;5018152;28;20166;-75
2022/11/14 05:21:25;;;;;;;65.55;42.50;;;;;;;;;;5015077;28;20503;-75
2022/11/14 05:23:51;;;;;;;69.30;43.20;;;;;;;;;;5011998;28;20584;-75
2022/11/14 05:26:17;;;;;;;66.85;44.30;;;;;;;;;;5007749;28;20817;-75
2022/11/14 05:28:43;;;;;;;62.10;41.78;;;;;;;;;;4990064;28;20547;-75
2022/11/14 05:31:16;;;;;;;66.68;42.58;;;;;;;;;;5023059;28;20083;-75
2022/11/14 05:33:42;;;;;;;67.60;41.05;;;;;;;;;;5020585;28;20060;-75
2022/11/14 05:36:10;;;;;;;67.47;42.80;;;;;;;;;;5017484;28;20596;-74
2022/11/14 05:38:36;;;;;;;68.93;41.72;;;;;;;;;;5033194;28;20057;-74
2022/11/14 05:41:06;;;;;;;68.60;43.95;;;;;;;;;;4999833;28;20192;-74
2022/11/14 05:43:32;;;;;;;74.05;44.63;;;;;;;;;;5004735;28;20136;-75
2022/11/14 05:46:03;;;;;;;73.32;43.40;;;;;;;;;;4992415;28;20069;-75
2022/11/14 05:48:29;;;;;;;74.00;47.72;;;;;;;;;;5013599;28;20069;-75
2022/11/14 05:51:00;;;;;;;79.65;46.50;;;;;;;;;;5011191;28;20057;-74
2022/11/14 05:53:27;;;;;;;74.40;49.15;;;;;;;;;;5013450;28;20045;-75
2022/11/14 05:55:54;;;;;;;73.45;45.40;;;;;;;;;;4995621;28;20786;-74
2022/11/14 05:58:20;;;;;;;75.60;48.25;;;;;;;;;;5013808;28;20045;-75
2022/11/14 06:00:47;;;;;;;76.40;48.25;;;;;;;;;;5010728;28;20037;-75
2022/11/14 06:03:16;;;;;;;75.07;47.42;;;;;;;;;;4985292;28;20107;-75
2022/11/14 06:05:42;;;;;;;78.85;49.63;;;;;;;;;;4994901;28;20051;-75
2022/11/14 06:08:08;;;;;;;80.53;50.67;;;;;;;;;;5013839;28;20068;-76
2022/11/14 06:10:35;;;;;;;79.10;51.05;;;;;;;;;;4987408;28;20056;-76
2022/11/14 06:13:01;;;;;;;83.00;50.33;;;;;;;;;;5007828;28;20045;-76
2022/11/14 06:15:27;;;;;;;78.50;47.47;;;;;;;;;;5011531;28;20045;-75
2022/11/14 06:17:53;;;;;;;85.47;49.03;;;;;;;;;;4993697;28;20545;-75
2022/11/14 06:20:19;;;;;;;77.30;48.72;;;;;;;;;;5008754;28;20474;-75
2022/11/14 06:22:45;;;;;;;82.07;48.75;;;;;;;;;;4991606;28;20107;-76
2022/11/14 06:25:12;;;;;;;73.57;47.45;;;;;;;;;;5008690;28;20172;-76
2022/11/14 06:27:38;;;;;;;80.10;48.28;;;;;;;;;;5007488;28;20052;-75
2022/11/14 06:30:04;;;;;;;79.25;47.95;;;;;;;;;;5025739;28;20047;-75
2022/11/14 06:32:30;;;;;;;77.75;49.40;;;;;;;;;;5036722;28;20050;-75
2022/11/14 06:34:56;;;;;;;81.43;47.65;;;;;;;;;;5015248;28;20042;-75
2022/11/14 06:37:22;;;;;;;79.72;49.83;;;;;;;;;;4995385;28;20488;-76
2022/11/14 06:39:48;;;;;;;74.80;47.10;;;;;;;;;;5028410;28;20096;-77
2022/11/14 06:42:15;;;;;;;74.75;47.03;;;;;;;;;;5015309;28;20040;-76
2022/11/14 06:44:41;;;;;;;78.05;47.15;;;;;;;;;;5020674;28;20060;-76
2022/11/14 06:47:07;;;;;;;78.28;46.35;;;;;;;;;;5022286;28;20044;-74
2022/11/14 06:49:34;;;;;;;72.22;45.00;;;;;;;;;;5028928;28;20041;-75
2022/11/14 06:52:01;;;;;;;67.43;42.33;;;;;;;;;;5022599;28;20440;-75
2022/11/14 06:54:27;;;;;;;77.25;45.28;;;;;;;;;;5001151;28;20067;-75
2022/11/14 06:56:53;;;;;;;73.95;44.42;;;;;;;;;;5002852;28;20388;-75
2022/11/14 06:59:19;;;;;;;80.35;45.17;;;;;;;;;;5022043;28;20197;-75
2022/11/14 07:01:45;;;;;;;76.28;44.50;;;;;;;;;;5019097;28;20653;-75
2022/11/14 07:04:11;;;;;;;69.00;40.92;;;;;;;;;;5017200;28;20045;-75
2022/11/14 07:06:37;;;;;;;72.40;41.42;;;;;;;;;;5021171;28;20037;-76
2022/11/14 07:09:04;;;;;;;73.47;43.08;;;;;;;;;;5037201;28;20480;-75
2022/11/14 07:11:30;;;;;;;76.25;42.53;;;;;;;;;;5040193;28;20052;-73
2022/11/14 07:13:58;;;;;;;77.35;42.58;;;;;;;;;;5038279;28;20515;-75
2022/11/14 07:16:31;;;;;;;70.28;41.85;;;;;;;;;;5037274;28;20045;-74
2022/11/14 07:18:58;;;;;;;76.63;43.35;;;;;;;;;;5020338;28;20056;-75
2022/11/14 07:21:25;;;;;;;74.05;44.20;;;;;;;;;;5022620;28;20076;-73
2022/11/14 07:23:51;;;;;;;72.32;42.60;;;;;;;;;;5003727;28;20079;-75
2022/11/14 07:26:17;;;;;;;70.10;41.60;;;;;;;;;;5009124;28;20055;-75
2022/11/14 07:28:43;;;;;;;75.28;45.85;;;;;;;;;;5035363;28;20099;-75
2022/11/14 07:31:13;;;;;;;83.07;45.45;;;;;;;;;;5017220;28;20512;-75
2022/11/14 07:33:40;;;;;;;73.32;44.88;;;;;;;;;;5014424;28;20139;-75
2022/11/14 07:36:07;;;;;;;77.60;43.08;;;;;;;;;;5016869;28;20043;-75
2022/11/14 07:38:34;;;;;;;76.00;44.45;;;;;;;;;;4996936;28;20490;-75
2022/11/14 07:41:13;;;;;;;68.93;41.20;;;;;;;;;;5004178;28;20056;-74
2022/11/14 07:43:40;;;;;;;75.47;44.15;;;;;;;;;;5013687;28;20097;-75
2022/11/14 07:46:07;;;;;;;78.10;41.33;;;;;;;;;;5011566;28;20537;-74
2022/11/14 07:48:33;;;;;;;77.85;42.83;;;;;;;;;;5011379;28;20040;-74
2022/11/14 07:51:00;;;;;;;71.75;41.60;;;;;;;;;;5013099;28;20037;-74
2022/11/14 07:53:26;;;;;;;76.20;42.50;;;;;;;;;;5011349;28;20120;-74
2022/11/14 07:55:52;;;;;;;71.50;40.65;;;;;;;;;;5012717;28;20126;-75
2022/11/14 07:58:18;;;;;;;68.70;40.40;;;;;;;;;;5012548;28;20042;-76
2022/11/14 08:00:44;;;;;;;73.80;41.45;;;;;;;;;;5016123;28;20105;-75
2022/11/14 08:03:10;;;;;;;67.50;39.40;;;;;;;;;;5012296;28;20033;-74
2022/11/14 08:05:37;;;;;;;75.45;41.30;;;;;;;;;;5032518;28;20041;-74
2022/11/14 08:08:03;;;;;;;71.97;41.92;;;;;;;;;;5020526;28;20052;-74
2022/11/14 08:10:30;;;;;;;68.95;40.53;;;;;;;;;;5032536;28;20676;-74
2022/11/14 08:13:00;;;;;;;74.95;41.60;;;;;;;;;;5009844;28;20191;-75
2022/11/14 08:15:26;;;;;;;77.70;43.25;;;;;;;;;;4975069;28;20132;-76
2022/11/14 08:17:52;;;;;;;70.78;41.40;;;;;;;;;;5006426;28;20045;-75
2022/11/14 08:20:18;;;;;;;68.30;39.88;;;;;;;;;;5009300;28;20076;-75
2022/11/14 08:22:44;;;;;;;72.65;41.53;;;;;;;;;;5010042;28;20053;-75
2022/11/14 08:25:10;;;;;;;65.13;39.90;;;;;;;;;;5008619;28;20058;-76
2022/11/14 08:27:36;;;;;;;69.80;41.55;;;;;;;;;;4985782;28;20720;-75
2022/11/14 08:30:02;;;;;;;62.78;40.08;;;;;;;;;;5004924;28;20037;-75
2022/11/14 08:32:28;;;;;;;69.78;42.80;;;;;;;;;;5006074;28;20050;-76
2022/11/14 08:34:54;;;;;;;69.28;41.65;;;;;;;;;;5010705;28;20179;-76
2022/11/14 08:37:20;;;;;;;71.13;42.53;;;;;;;;;;4991969;28;20143;-75
2022/11/14 08:39:46;;;;;;;70.38;44.92;;;;;;;;;;5023697;28;20049;-76
2022/11/14 08:42:13;;;;;;;69.50;42.92;;;;;;;;;;5026860;28;20045;-71
2022/11/14 08:44:39;;;;;;;68.80;43.58;;;;;;;;;;5001013;28;20123;-75
2022/11/14 08:47:07;;;;;;;65.72;42.10;;;;;;;;;;5030684;28;20083;-75
2022/11/14 08:49:33;;;;;;;70.97;42.08;;;;;;;;;;5002905;28;20049;-76
2022/11/14 08:51:59;;;;;;;68.72;43.38;;;;;;;;;;5001249;28;20075;-75
2022/11/14 08:54:25;;;;;;;69.20;42.63;;;;;;;;;;4993598;28;20037;-75
2022/11/14 08:56:51;;;;;;;69.72;43.10;;;;;;;;;;5014214;28;20060;-75
2022/11/14 08:59:17;;;;;;;69.95;45.17;;;;;;;;;;4980766;28;20045;-75
2022/11/14 09:01:43;;;;;;;76.15;46.05;;;;;;;;;;5017707;28;20818;-75
2022/11/14 09:04:09;;;;;;;78.63;46.05;;;;;;;;;;5010426;28;20057;-76
2022/11/14 09:06:35;;;;;;;75.03;45.45;;;;;;;;;;5018520;28;20060;-76
2022/11/14 09:09:01;;;;;;;77.13;47.67;;;;;;;;;;5016381;28;20037;-75
2022/11/14 09:11:27;;;;;;;76.00;48.53;;;;;;;;;;5013194;28;20038;-75
2022/11/14 09:13:53;;;;;;;74.25;46.83;;;;;;;;;;5005897;28;20500;-75
2022/11/14 09:16:19;;;;;;;77.13;48.13;;;;;;;;;;4997836;28;20469;-76
2022/11/14 09:18:46;;;;;;;75.13;45.45;;;;;;;;;;4988330;28;21570;-76
2022/11/14 09:21:12;;;;;;;73.30;45.55;;;;;;;;;;4973521;28;20963;-75
2022/11/14 09:23:38;;;;;;;78.30;46.88;;;;;;;;;;5004846;28;21928;-76
2022/11/14 09:26:05;;;;;;;76.57;48.03;;;;;;;;;;4990609;28;20043;-75
2022/11/14 09:28:31;;;;;;;75.35;46.05;;;;;;;;;;5008937;28;20135;-74
2022/11/14 09:31:01;;;;;;;75.70;48.22;;;;;;;;;;5011914;28;20049;-75
2022/11/14 09:33:27;;;;;;;72.72;45.05;;;;;;;;;;5008840;28;20042;-75
2022/11/14 09:36:00;;;;;;;70.05;45.55;;;;;;;;;;5007060;28;20037;-75
2022/11/14 09:38:27;;;;;;;70.47;45.13;;;;;;;;;;5019867;28;20041;-76
2022/11/14 09:41:10;;;;;;;70.18;45.38;;;;;;;;;;5002965;28;20052;-76
2022/11/14 09:43:54;;;;;;;71.05;45.17;;;;;;;;;;5036260;28;20044;-75
2022/11/14 09:46:22;;;;;;;74.10;44.95;;;;;;;;;;5030849;28;20063;-74
2022/11/14 09:48:49;;;;;;;72.43;44.88;;;;;;;;;;5003020;28;20443;-76
2022/11/14 09:51:16;;;;;;;70.90;45.38;;;;;;;;;;4990014;28;20041;-75
2022/11/14 09:54:01;;;;;;;72.53;48.35;;;;;;;;;;5008691;28;20048;-75
2022/11/14 09:56:28;;;;;;;70.28;46.20;;;;;;;;;;5009580;28;20045;-76
2022/11/14 09:58:55;;;;;;;68.57;46.25;;;;;;;;;;4986022;28;20048;-74
2022/11/14 10:01:40;;;;;;;71.45;46.38;;;;;;;;;;5007977;28;20038;-75
2022/11/14 10:04:09;;;;;;;90.57;57.90;;;;;;;;;;5005215;28;20064;-75
2022/11/14 10:06:42;;;;;;;100.88;67.40;;;;;;;;;;5012680;28;20164;-75
2022/11/14 10:09:26;;;;;;;69.18;44.47;;;;;;;;;;5009166;28;20080;-74
2022/11/14 10:12:12;;;;;;;70.43;44.25;;;;;;;;;;5015716;28;20171;-75
2022/11/14 10:14:50;;;;;;;70.47;45.40;;;;;;;;;;5016415;28;20106;-75
2022/11/14 10:17:20;;;;;;;70.18;46.13;;;;;;;;;;5004511;28;20045;-75
2022/11/14 10:19:52;;;;;;;71.30;46.38;;;;;;;;;;5026216;28;20483;-75
2022/11/14 10:22:25;;;;;;;73.78;46.97;;;;;;;;;;5016558;28;20587;-74
2022/11/14 10:25:10;;;;;;;76.10;47.78;;;;;;;;;;4992111;28;20041;-75
2022/11/14 10:27:40;;;;;;;73.00;47.13;;;;;;;;;;5012738;28;20051;-74
2022/11/14 10:30:15;;;;;;;69.53;45.47;;;;;;;;;;5006445;28;20056;-75
2022/11/14 10:32:47;;;;;;;72.35;45.88;;;;;;;;;;4991244;28;20079;-74
2022/11/14 10:35:16;;;;;;;68.72;46.20;;;;;;;;;;5010524;28;20603;-74
2022/11/14 10:37:45;;;;;;;72.93;44.13;;;;;;;;;;5005548;28;20139;-75
2022/11/14 10:40:17;;;;;;;65.75;45.30;;;;;;;;;;4996184;28;20246;-74
2022/11/14 10:42:45;;;;;;;68.20;42.95;;;;;;;;;;4999806;28;20052;-74
2022/11/14 10:45:29;;;;;;;69.57;44.13;;;;;;;;;;5009497;28;20056;-74
2022/11/14 10:47:58;;;;;;;64.55;43.55;;;;;;;;;;5004130;28;20071;-75
2022/11/14 10:50:27;;;;;;;66.63;42.30;;;;;;;;;;5007606;28;20046;-75
2022/11/14 10:52:57;;;;;;;59.55;41.17;;;;;;;;;;5007554;28;20947;-75
2022/11/14 10:55:23;;;;;;;60.00;42.22;;;;;;;;;;5005569;28;20057;-76
2022/11/14 10:57:49;;;;;;;58.45;40.58;;;;;;;;;;5006141;28;20053;-75
2022/11/14 11:00:17;;;;;;;61.78;40.20;;;;;;;;;;5006850;28;20135;-76
2022/11/14 11:02:47;;;;;;;52.88;37.88;;;;;;;;;;5026903;28;20056;-76
2022/11/14 11:05:18;;;;;;;59.08;38.35;;;;;;;;;;4996953;28;20095;-76
2022/11/14 11:13:29;;;;;;;54.35;38.05;;;;;;;;;;5018524;28;20056;-75
2022/11/14 11:15:57;;;;;;;52.00;37.28;;;;;;;;;;5020696;28;20123;-76
2022/11/14 11:18:29;;;;;;;53.53;36.15;;;;;;;;;;5033788;28;20044;-75
2022/11/14 11:21:07;;;;;;;50.28;35.90;;;;;;;;;;5032345;28;20568;-75
2022/11/14 11:23:33;;;;;;;50.53;37.42;;;;;;;;;;4976657;28;20409;-75
2022/11/14 11:26:06;;;;;;;50.22;35.70;;;;;;;;;;5006598;28;20495;-75
2022/11/14 11:28:36;;;;;;;52.27;36.83;;;;;;;;;;5016806;28;20619;-75
2022/11/14 11:31:04;;;;;;;52.60;37.72;;;;;;;;;;5006902;28;20682;-76
2022/11/14 11:33:34;;;;;;;53.80;37.90;;;;;;;;;;4989637;28;20051;-75
2022/11/14 11:36:21;;;;;;;51.47;35.58;;;;;;;;;;5005244;28;20052;-75
2022/11/14 11:38:48;;;;;;;48.58;35.33;;;;;;;;;;4995107;28;20049;-76
2022/11/14 11:41:22;;;;;;;51.05;34.22;;;;;;;;;;5011822;28;20552;-76
2022/11/14 11:43:53;;;;;;;47.65;33.08;;;;;;;;;;5013977;28;20045;-77
2022/11/14 11:46:43;;;;;;;50.95;34.60;;;;;;;;;;5011751;28;20547;-77
2022/11/14 11:49:18;;;;;;;48.92;35.05;;;;;;;;;;5014649;28;20049;-76
2022/11/14 11:51:45;;;;;;;50.13;34.95;;;;;;;;;;5029175;28;20053;-76
2022/11/14 11:54:24;;;;;;;45.92;34.22;;;;;;;;;;5028830;28;20674;-76
2022/11/14 11:56:52;;;;;;;53.30;35.58;;;;;;;;;;5013102;28;20045;-75
2022/11/14 11:59:21;;;;;;;47.95;34.92;;;;;;;;;;4984724;28;20045;-76
2022/11/14 12:01:49;;;;;;;46.42;34.00;;;;;;;;;;4998595;28;20174;-75
2022/11/14 12:04:15;;;;;;;49.47;34.88;;;;;;;;;;5004116;28;20500;-75
2022/11/14 12:06:55;;;;;;;45.70;33.65;;;;;;;;;;5009262;28;20052;-78
2022/11/14 12:09:24;;;;;;;45.78;32.67;;;;;;;;;;5006932;28;20454;-76
2022/11/14 12:11:53;;;;;;;41.55;31.08;;;;;;;;;;4994151;28;20047;-76
2022/11/14 12:14:40;;;;;;;45.42;33.97;;;;;;;;;;5018110;28;20405;-76
2022/11/14 12:17:06;;;;;;;47.70;32.45;;;;;;;;;;5007154;28;20045;-76
2022/11/14 12:19:32;;;;;;;43.80;31.33;;;;;;;;;;5004809;28;20111;-76
2022/11/14 12:22:17;;;;;;;41.05;30.65;;;;;;;;;;5003720;28;20742;-76
2022/11/14 12:25:01;;;;;;;39.53;29.27;;;;;;;;;;4996796;28;20045;-76
2022/11/14 12:27:34;;;;;;;42.50;31.58;;;;;;;;;;4999610;28;20125;-76
2022/11/14 12:30:12;;;;;;;41.42;30.52;;;;;;;;;;5005731;28;20163;-76
2022/11/14 12:32:47;;;;;;;46.75;32.75;;;;;;;;;;4987284;28;20067;-76
2022/11/14 12:35:18;;;;;;;45.10;30.67;;;;;;;;;;5011307;28;20041;-76
2022/11/14 12:37:45;;;;;;;39.50;30.13;;;;;;;;;;5013025;28;20604;-76
2022/11/14 12:40:32;;;;;;;41.65;30.08;;;;;;;;;;4996694;28;20049;-74
2022/11/14 12:42:59;;;;;;;44.75;31.45;;;;;;;;;;4980047;28;20079;-76
2022/11/14 12:45:48;;;;;;;43.40;31.52;;;;;;;;;;4976207;28;20045;-76
2022/11/14 12:48:21;;;;;;;45.45;30.50;;;;;;;;;;4990426;28;20103;-76
2022/11/14 12:50:47;;;;;;;47.00;31.20;;;;;;;;;;4979265;28;20033;-75
2022/11/14 12:53:38;;;;;;;43.15;31.05;;;;;;;;;;5006595;28;20041;-75
2022/11/14 12:56:11;;;;;;;44.22;30.77;;;;;;;;;;5019979;28;20072;-75
2022/11/14 12:58:49;;;;;;;45.53;31.33;;;;;;;;;;5030793;28;20430;-75
2022/11/14 13:01:34;;;;;;;42.97;31.27;;;;;;;;;;4979079;28;20385;-75
2022/11/14 13:04:23;;;;;;;44.28;30.35;;;;;;;;;;4979435;28;20410;-76
2022/11/14 13:06:49;;;;;;;46.88;31.10;;;;;;;;;;4962453;28;20053;-76
2022/11/14 13:09:36;;;;;;;44.35;31.35;;;;;;;;;;4988906;28;20055;-74
2022/11/14 13:23:49;;;;;;;50.80;33.05;;;;;;;;;;4989410;28;20041;-74
2022/11/14 13:26:16;;;;;;;53.78;34.55;;;;;;;;;;5016402;28;20053;-75
2022/11/14 13:28:52;;;;;;;45.42;30.23;;;;;;;;;;5018169;28;20041;-75
2022/11/14 13:31:25;;;;;;;43.38;29.20;;;;;;;;;;4988503;28;20088;-75
2022/11/14 13:33:52;;;;;;;43.25;31.70;;;;;;;;;;5015414;28;20071;-74
2022/11/14 13:36:30;;;;;;;45.67;32.08;;;;;;;;;;4997974;28;20478;-75
2022/11/14 13:39:14;;;;;;;49.65;34.63;;;;;;;;;;5025715;28;20057;-74
2022/11/14 13:41:43;;;;;;;49.97;32.88;;;;;;;;;;5036784;28;20045;-76
2022/11/14 13:44:39;;;;;;;49.95;35.53;;;;;;;;;;5004088;28;20037;-75
2022/11/14 13:47:24;;;;;;;46.00;32.63;;;;;;;;;;5024406;28;20052;-76
2022/11/14 13:49:51;;;;;;;50.60;33.92;;;;;;;;;;5036631;28;20079;-76
2022/11/14 13:52:18;;;;;;;53.22;36.40;;;;;;;;;;5021874;28;20098;-76
2022/11/14 13:54:48;;;;;;;71.15;45.08;;;;;;;;;;5021647;28;20051;-76
2022/11/14 13:57:20;;;;;;;63.92;38.83;;;;;;;;;;4993866;28;20048;-76
2022/11/14 13:59:54;;;;;;;84.22;49.50;;;;;;;;;;5020414;28;20195;-76
2022/11/14 14:02:47;;;;;;;37.90;25.65;;;;;;;;;;5026377;28;20474;-77
2022/11/14 14:05:13;;;;;;;37.70;26.70;;;;;;;;;;5023485;28;20193;-76
2022/11/14 14:07:57;;;;;;;38.42;27.33;;;;;;;;;;5026534;28;20036;-76
2022/11/14 14:10:23;;;;;;;;;;;;;;;;;;5013272;28;20508;-77
2022/11/14 14:12:52;;;;;;;41.60;26.45;;;;;;;;;;5023053;28;21427;-76
2022/11/14 14:15:34;;;;;;;35.35;25.55;;;;;;;;;;4994272;28;20746;-76
2022/11/14 14:18:05;;;;;;;41.67;28.98;;;;;;;;;;5025096;28;20483;-76
2022/11/14 14:20:43;;;;;;;40.95;28.20;;;;;;;;;;5024832;28;20044;-76
2022/11/14 14:23:14;;;;;;;48.72;33.20;;;;;;;;;;5024566;28;20048;-76
2022/11/14 14:25:43;;;;;;;37.88;25.77;;;;;;;;;;5041405;28;20401;-77
2022/11/14 14:28:15;;;;;;;35.67;26.67;;;;;;;;;;5019722;28;20489;-77
2022/11/14 14:30:41;;;;;;;36.10;27.05;;;;;;;;;;5045735;28;20110;-76
2022/11/14 14:33:07;;;;;;;35.72;27.00;;;;;;;;;;5012313;28;20396;-75
2022/11/14 14:35:34;;;;;;;40.17;29.13;;;;;;;;;;5025833;28;20473;-77
2022/11/14 14:38:00;;;;;;;36.95;25.95;;;;;;;;;;5017482;28;20493;-75
2022/11/14 14:40:34;;;;;;;38.55;27.85;;;;;;;;;;5031800;28;20457;-76
2022/11/14 14:43:01;;;;;;;43.25;28.20;;;;;;;;;;5038941;28;20037;-75